createdAt,value
2022-09-14T00:01:48.990Z,60.70
2022-09-14T00:04:23.358Z,60.70
2022-09-14T00:06:57.215Z,60.70
2022-09-14T00:09:31.213Z,60.80
2022-09-14T00:12:05.596Z,60.80
2022-09-14T00:14:40.681Z,60.80
2022-09-14T00:17:15.904Z,60.80
2022-09-14T00:19:49.925Z,60.80
2022-09-14T00:22:23.827Z,60.80
2022-09-14T00:24:57.421Z,60.80
2022-09-14T00:27:31.272Z,60.80
2022-09-14T00:30:05.906Z,60.80
2022-09-14T00:32:41.234Z,60.80
2022-09-14T00:35:15.146Z,60.80
2022-09-14T00:37:51.578Z,60.80
2022-09-14T00:40:25.824Z,60.90
2022-09-14T00:42:59.697Z,60.90
2022-09-14T00:45:33.446Z,60.90
2022-09-14T00:48:09.628Z,61.00
2022-09-14T00:50:43.992Z,60.90
2022-09-14T00:53:18.084Z,61.00
2022-09-14T00:55:54.172Z,61.00
2022-09-14T00:58:28.336Z,61.00
2022-09-14T01:01:02.608Z,61.10
2022-09-14T01:03:39.436Z,61.10
2022-09-14T01:06:20.096Z,61.10
2022-09-14T01:09:16.416Z,61.10
2022-09-14T01:12:06.275Z,61.20
2022-09-14T01:14:46.080Z,61.20
2022-09-14T01:17:26.951Z,61.20
2022-09-14T01:20:17.033Z,61.10
2022-09-14T01:22:54.657Z,61.20
2022-09-14T01:26:01.474Z,61.10
2022-09-14T01:28:42.601Z,61.30
2022-09-14T01:31:19.873Z,61.30
2022-09-14T01:33:58.949Z,61.30
2022-09-14T01:36:36.162Z,61.30
2022-09-14T01:39:11.237Z,61.30
2022-09-14T01:41:47.936Z,61.30
2022-09-14T01:44:26.850Z,61.40
2022-09-14T01:47:06.386Z,61.40
2022-09-14T01:49:44.186Z,61.40
2022-09-14T01:52:21.727Z,61.30
2022-09-14T01:54:59.688Z,61.30
2022-09-14T01:57:38.694Z,61.30
2022-09-14T02:00:18.071Z,61.30
2022-09-14T02:02:56.513Z,61.30
2022-09-14T02:05:35.558Z,61.30
2022-09-14T02:08:09.698Z,61.30
2022-09-14T02:10:43.653Z,61.30
2022-09-14T02:13:17.452Z,61.30
2022-09-14T02:15:52.502Z,61.30
2022-09-14T02:18:26.613Z,61.30
2022-09-14T02:21:04.270Z,61.30
2022-09-14T02:23:38.068Z,61.30
2022-09-14T02:26:12.349Z,61.30
2022-09-14T02:28:46.337Z,61.30
2022-09-14T02:31:28.297Z,61.30
2022-09-14T02:34:08.445Z,61.30
2022-09-14T02:36:50.236Z,61.30
2022-09-14T02:39:41.928Z,61.30
2022-09-14T02:42:26.762Z,61.30
2022-09-14T02:45:07.759Z,61.30
2022-09-14T02:47:55.518Z,61.30
2022-09-14T02:50:36.268Z,61.30
2022-09-14T02:53:15.907Z,61.30
2022-09-14T02:55:53.783Z,61.30
2022-09-14T02:58:35.872Z,61.90
2022-09-14T03:01:12.465Z,61.40
2022-09-14T03:03:47.812Z,61.30
2022-09-14T03:06:21.611Z,61.30
2022-09-14T03:08:55.122Z,61.30
2022-09-14T03:11:29.072Z,61.30
2022-09-14T03:14:02.888Z,61.30
2022-09-14T03:16:36.514Z,61.30
2022-09-14T03:19:12.510Z,61.30
2022-09-14T03:21:46.576Z,61.30
2022-09-14T03:24:20.353Z,61.30
2022-09-14T03:26:53.903Z,61.30
2022-09-14T03:29:27.703Z,61.30
2022-09-14T03:32:01.242Z,61.30
2022-09-14T03:34:36.447Z,61.30
2022-09-14T03:37:10.295Z,61.30
2022-09-14T03:39:44.341Z,61.30
2022-09-14T03:42:17.884Z,61.30
2022-09-14T03:44:51.674Z,61.20
2022-09-14T03:47:25.314Z,61.30
2022-09-14T03:50:00.511Z,61.20
2022-09-14T03:52:35.175Z,61.30
2022-09-14T03:55:10.954Z,61.20
2022-09-14T03:57:44.705Z,61.30
2022-09-14T04:00:18.943Z,61.30
2022-09-14T04:02:53.062Z,61.20
2022-09-14T04:05:28.320Z,61.30
2022-09-14T04:08:02.121Z,61.30
2022-09-14T04:10:35.673Z,61.30
2022-09-14T04:13:09.451Z,61.80
2022-09-14T04:15:43.433Z,61.20
2022-09-14T04:18:17.270Z,61.30
2022-09-14T04:20:56.939Z,61.30
2022-09-14T04:23:31.084Z,61.30
2022-09-14T04:26:11.994Z,61.20
2022-09-14T04:28:46.609Z,61.30
2022-09-14T04:31:20.536Z,61.20
2022-09-14T04:33:57.324Z,61.30
2022-09-14T04:36:32.886Z,61.30
2022-09-14T04:39:07.004Z,61.40
2022-09-14T04:41:40.989Z,61.30
2022-09-14T04:44:14.535Z,61.30
2022-09-14T04:46:48.455Z,61.20
2022-09-14T04:49:22.339Z,61.30
2022-09-14T04:51:57.257Z,61.30
2022-09-14T04:54:31.070Z,61.20
2022-09-14T04:57:04.685Z,61.80
2022-09-14T04:59:38.481Z,61.20
2022-09-14T05:02:12.050Z,61.20
2022-09-14T05:04:45.945Z,61.20
2022-09-14T05:07:20.875Z,61.10
2022-09-14T05:09:54.674Z,61.30
2022-09-14T05:12:28.170Z,61.20
2022-09-14T05:15:01.988Z,61.20
2022-09-14T05:17:35.541Z,61.20
2022-09-14T05:20:10.445Z,61.20
2022-09-14T05:22:45.694Z,61.20
2022-09-14T05:25:19.748Z,61.50
2022-09-14T05:27:53.544Z,61.50
2022-09-14T05:30:27.056Z,61.60
2022-09-14T05:33:00.840Z,61.70
2022-09-14T05:35:34.374Z,61.60
2022-09-14T05:38:09.607Z,61.80
2022-09-14T05:40:43.527Z,61.80
2022-09-14T05:43:17.509Z,61.90
2022-09-14T05:45:51.042Z,62.00
2022-09-14T05:48:24.871Z,62.00
2022-09-14T05:50:59.598Z,61.90
2022-09-14T05:53:35.218Z,61.90
2022-09-14T05:56:11.333Z,61.90
2022-09-14T05:58:45.178Z,61.90
2022-09-14T06:01:19.655Z,62.20
2022-09-14T06:03:54.678Z,62.80
2022-09-14T06:06:28.918Z,62.50
2022-09-14T06:09:05.773Z,61.80
2022-09-14T06:11:39.911Z,61.50
2022-09-14T06:14:13.891Z,60.70
2022-09-14T06:16:47.567Z,60.10
2022-09-14T06:19:21.467Z,60.30
2022-09-14T06:21:55.441Z,60.20
2022-09-14T06:24:30.993Z,60.30
2022-09-14T06:27:04.986Z,60.20
2022-09-14T06:29:38.899Z,60.50
2022-09-14T06:32:12.436Z,60.50
2022-09-14T06:34:46.324Z,60.50
2022-09-14T06:37:20.212Z,60.60
2022-09-14T06:39:56.051Z,60.70
2022-09-14T06:42:31.597Z,60.50
2022-09-14T06:45:06.826Z,60.10
2022-09-14T06:47:40.738Z,60.10
2022-09-14T06:50:14.694Z,59.90
2022-09-14T06:52:48.207Z,59.90
2022-09-14T06:55:23.415Z,59.90
2022-09-14T06:57:57.190Z,59.90
2022-09-14T07:00:30.693Z,59.80
2022-09-14T07:03:04.751Z,59.80
2022-09-14T07:05:38.581Z,59.60
2022-09-14T07:08:12.510Z,59.50
2022-09-14T07:10:57.485Z,59.40
2022-09-14T07:13:32.123Z,59.10
2022-09-14T07:16:06.800Z,59.00
2022-09-14T07:18:41.082Z,58.80
2022-09-14T07:21:17.038Z,58.60
2022-09-14T07:23:51.485Z,58.90
2022-09-14T07:26:28.144Z,58.20
2022-09-14T07:29:04.504Z,58.00
2022-09-14T07:31:41.872Z,57.90
2022-09-14T07:34:17.053Z,57.90
2022-09-14T07:36:50.891Z,57.70
2022-09-14T07:39:24.430Z,57.60
2022-09-14T07:42:00.002Z,57.50
2022-09-14T07:44:33.815Z,57.50
2022-09-14T07:47:07.432Z,57.40
2022-09-14T07:49:41.280Z,57.30
2022-09-14T07:52:15.197Z,57.40
2022-09-14T07:54:49.085Z,57.50
2022-09-14T07:57:45.455Z,57.50
2022-09-14T08:00:17.833Z,57.30
2022-09-14T08:02:54.980Z,57.30
2022-09-14T08:05:29.110Z,57.30
2022-09-14T08:08:03.247Z,57.40
2022-09-14T08:10:37.740Z,57.30
2022-09-14T08:13:13.444Z,57.70
2022-09-14T08:15:47.416Z,58.00
2022-09-14T08:18:21.258Z,58.20
2022-09-14T08:20:54.854Z,58.40
2022-09-14T08:23:28.628Z,58.60
2022-09-14T08:26:05.465Z,58.50
2022-09-14T08:28:41.211Z,58.80
2022-09-14T08:31:17.176Z,58.90
2022-09-14T08:33:52.936Z,59.30
2022-09-14T08:36:28.818Z,59.50
2022-09-14T08:39:03.097Z,59.70
2022-09-14T08:41:42.355Z,59.80
2022-09-14T08:44:22.552Z,60.00
2022-09-14T08:47:03.009Z,60.20
2022-09-14T08:49:48.438Z,60.30
2022-09-14T08:52:27.159Z,60.30
2022-09-14T08:55:02.780Z,60.20
2022-09-14T08:57:45.035Z,60.20
2022-09-14T09:00:24.650Z,60.20
2022-09-14T09:03:29.970Z,60.40
2022-09-14T09:06:15.652Z,60.40
2022-09-14T09:08:59.535Z,61.20
2022-09-14T09:11:39.358Z,60.50
2022-09-14T09:14:19.959Z,60.40
2022-09-14T09:16:58.509Z,60.50
2022-09-14T09:19:36.037Z,60.50
2022-09-14T09:22:16.380Z,60.60
2022-09-14T09:24:54.023Z,60.60
2022-09-14T09:27:29.104Z,60.50
2022-09-14T09:30:03.422Z,60.30
2022-09-14T09:32:40.665Z,60.10
2022-09-14T09:35:26.662Z,59.90
2022-09-14T09:38:15.377Z,59.40
2022-09-14T09:40:53.883Z,58.60
2022-09-14T09:43:48.457Z,58.40
2022-09-14T09:46:22.108Z,58.10
2022-09-14T09:48:58.582Z,57.80
2022-09-14T09:51:34.666Z,57.20
2022-09-14T09:54:20.533Z,56.90
2022-09-14T09:56:58.213Z,56.50
2022-09-14T09:59:35.962Z,56.00
2022-09-14T10:02:23.867Z,55.50
2022-09-14T10:05:01.774Z,54.50
2022-09-14T10:07:38.025Z,54.20
2022-09-14T10:10:14.319Z,53.70
2022-09-14T10:12:50.549Z,53.20
2022-09-14T10:15:27.099Z,52.90
2022-09-14T10:18:10.188Z,52.30
2022-09-14T10:20:48.225Z,51.80
2022-09-14T10:23:25.951Z,52.00
2022-09-14T10:26:24.113Z,51.90
2022-09-14T10:29:31.055Z,51.60
2022-09-14T10:32:16.024Z,51.60
2022-09-14T10:34:51.326Z,51.70
2022-09-14T10:37:33.953Z,51.70
2022-09-14T10:40:20.264Z,51.60
2022-09-14T10:43:09.221Z,51.50
2022-09-14T10:45:48.526Z,51.40
2022-09-14T10:48:51.947Z,51.50
2022-09-14T10:51:36.910Z,51.40
2022-09-14T10:54:24.212Z,51.70
2022-09-14T10:57:07.596Z,51.70
2022-09-14T10:59:50.007Z,51.90
2022-09-14T11:02:52.223Z,52.00
2022-09-14T11:05:30.382Z,52.00
2022-09-14T11:08:16.576Z,52.20
2022-09-14T11:11:09.366Z,52.50
2022-09-14T11:13:59.624Z,52.90
2022-09-14T11:16:50.779Z,53.10
2022-09-14T11:19:36.785Z,53.10
2022-09-14T11:22:20.415Z,53.90
2022-09-14T11:24:59.335Z,54.40
2022-09-14T11:27:41.289Z,54.40
2022-09-14T11:30:19.285Z,54.40
2022-09-14T11:32:57.515Z,54.40
2022-09-14T11:35:36.276Z,54.40
2022-09-14T11:38:16.052Z,54.60
2022-09-14T11:40:56.492Z,54.60
2022-09-14T11:43:38.405Z,54.80
2022-09-14T11:46:16.047Z,54.70
2022-09-14T11:48:55.328Z,55.20
2022-09-14T11:51:34.143Z,54.90
2022-09-14T11:54:16.798Z,55.00
2022-09-14T11:56:52.616Z,54.90
2022-09-14T11:59:50.613Z,54.80
2022-09-14T12:03:03.028Z,54.70
2022-09-14T12:05:37.976Z,54.60
2022-09-14T12:08:29.245Z,54.40
2022-09-14T12:11:25.879Z,54.30
2022-09-14T12:14:29.732Z,54.20
2022-09-14T12:20:49.311Z,54.20
2022-09-14T12:23:29.059Z,54.60
2022-09-14T12:26:26.595Z,54.80
2022-09-14T12:29:36.488Z,54.90
2022-09-14T12:32:43.556Z,55.00
2022-09-14T12:35:46.806Z,54.80
2022-09-14T12:39:06.843Z,54.50
2022-09-14T12:42:32.414Z,54.60
2022-09-14T12:45:49.022Z,54.20
2022-09-14T12:48:59.133Z,54.20
2022-09-14T12:51:45.980Z,54.60
2022-09-14T12:54:27.374Z,54.00
2022-09-14T12:57:15.274Z,54.00
2022-09-14T12:59:55.825Z,54.00
2022-09-14T13:03:14.873Z,54.00
2022-09-14T13:05:51.163Z,54.10
2022-09-14T13:08:26.012Z,54.20
2022-09-14T13:10:59.992Z,54.10
2022-09-14T13:13:34.767Z,53.60
2022-09-14T13:16:09.305Z,53.50
2022-09-14T13:18:43.281Z,53.50
2022-09-14T13:21:24.116Z,53.30
2022-09-14T13:23:58.184Z,53.00
2022-09-14T13:26:33.470Z,53.10
2022-09-14T13:29:09.907Z,53.10
2022-09-14T13:31:46.721Z,52.90
2022-09-14T13:34:24.469Z,52.90
2022-09-14T13:37:00.007Z,52.90
2022-09-14T13:39:36.177Z,52.80
2022-09-14T13:42:11.478Z,52.80
2022-09-14T13:44:47.067Z,53.30
2022-09-14T13:47:23.614Z,53.80
2022-09-14T13:49:58.534Z,55.10
2022-09-14T13:55:44.968Z,55.70
2022-09-14T13:58:24.255Z,56.00
2022-09-14T14:01:00.482Z,56.10
2022-09-14T14:03:38.309Z,56.10
2022-09-14T14:06:27.301Z,56.10
2022-09-14T14:09:04.994Z,55.90
2022-09-14T14:11:41.306Z,55.80
2022-09-14T14:14:26.466Z,55.60
2022-09-14T14:17:23.592Z,55.30
2022-09-14T14:19:59.215Z,55.10
2022-09-14T14:22:35.934Z,54.90
2022-09-14T14:25:29.373Z,54.70
2022-09-14T14:28:04.759Z,54.40
2022-09-14T14:30:41.935Z,54.50
2022-09-14T14:33:18.753Z,54.40
2022-09-14T14:35:54.658Z,54.10
2022-09-14T14:38:28.510Z,54.10
2022-09-14T14:41:03.870Z,54.20
2022-09-14T14:43:37.823Z,54.10
2022-09-14T14:46:11.860Z,54.10
2022-09-14T14:48:45.860Z,53.80
2022-09-14T14:51:19.895Z,53.90
2022-09-14T14:53:53.808Z,53.60
2022-09-14T14:56:29.824Z,53.50
2022-09-14T14:59:03.809Z,53.40
2022-09-14T15:01:37.777Z,53.70
2022-09-14T15:04:11.720Z,54.00
2022-09-14T15:06:47.520Z,53.80
2022-09-14T15:09:23.654Z,53.70
2022-09-14T15:11:59.019Z,53.50
2022-09-14T15:14:32.905Z,54.10
2022-09-14T15:17:06.631Z,53.50
2022-09-14T15:19:40.469Z,53.60
2022-09-14T15:22:14.373Z,53.60
2022-09-14T15:24:48.153Z,53.80
2022-09-14T15:27:23.128Z,53.90
2022-09-14T15:29:57.484Z,54.10
2022-09-14T15:32:31.394Z,54.30
2022-09-14T15:35:05.068Z,54.50
2022-09-14T15:37:38.907Z,54.40
2022-09-14T15:40:13.131Z,54.40
2022-09-14T15:42:48.481Z,54.50
2022-09-14T15:45:22.379Z,54.40
2022-09-14T15:47:56.508Z,54.40
2022-09-14T15:50:30.396Z,54.30
2022-09-14T15:53:03.991Z,54.10
2022-09-14T15:55:41.024Z,54.00
2022-09-14T15:58:16.458Z,54.10
2022-09-14T16:00:50.944Z,54.10
2022-09-14T16:03:25.129Z,54.10
2022-09-14T16:06:01.740Z,54.10
2022-09-14T16:08:37.414Z,54.10
2022-09-14T16:11:11.785Z,54.10
2022-09-14T16:13:47.304Z,54.00
2022-09-14T16:16:22.467Z,54.00
2022-09-14T16:18:57.689Z,54.60
2022-09-14T16:21:32.015Z,53.90
2022-09-14T16:24:08.681Z,53.90
2022-09-14T16:26:43.737Z,53.90
2022-09-14T16:29:20.997Z,53.90
2022-09-14T16:31:55.669Z,53.90
2022-09-14T16:34:31.481Z,53.90
2022-09-14T16:37:05.496Z,53.80
2022-09-14T16:39:39.445Z,53.80
2022-09-14T16:42:13.674Z,53.70
2022-09-14T16:44:49.342Z,53.70
2022-09-14T16:47:25.841Z,53.80
2022-09-14T16:49:59.938Z,53.80
2022-09-14T16:52:34.258Z,53.70
2022-09-14T16:55:09.378Z,53.70
2022-09-14T16:57:43.531Z,53.60
2022-09-14T17:00:19.180Z,53.30
2022-09-14T17:02:54.258Z,53.60
2022-09-14T17:05:29.059Z,53.80
2022-09-14T17:08:04.173Z,53.70
2022-09-14T17:10:39.160Z,53.80
2022-09-14T17:13:13.814Z,54.10
2022-09-14T17:15:50.110Z,54.40
2022-09-14T17:18:24.987Z,54.60
2022-09-14T17:21:01.930Z,54.80
2022-09-14T17:23:36.360Z,54.90
2022-09-14T17:26:14.458Z,54.80
2022-09-14T17:29:43.564Z,54.80
2022-09-14T17:32:37.822Z,55.20
2022-09-14T17:35:12.344Z,55.70
2022-09-14T17:37:48.053Z,56.10
2022-09-14T17:40:22.854Z,56.10
2022-09-14T17:42:57.946Z,55.90
2022-09-14T17:45:33.769Z,56.30
2022-09-14T17:48:11.334Z,56.70
2022-09-14T17:50:46.639Z,56.20
2022-09-14T17:53:22.494Z,56.10
2022-09-14T17:56:05.137Z,56.00
2022-09-14T17:58:40.955Z,55.80
2022-09-14T18:01:18.942Z,55.70
2022-09-14T18:03:58.110Z,55.80
2022-09-14T18:06:35.413Z,56.10
2022-09-14T18:09:14.330Z,56.60
2022-09-14T18:11:51.275Z,56.80
2022-09-14T18:14:27.196Z,56.20
2022-09-14T18:17:02.591Z,55.90
2022-09-14T18:19:40.009Z,55.70
2022-09-14T18:22:17.562Z,55.80
2022-09-14T18:24:52.921Z,56.50
2022-09-14T18:27:28.158Z,56.50
2022-09-14T18:30:03.731Z,56.80
2022-09-14T18:32:39.038Z,56.70
2022-09-14T18:35:17.075Z,56.60
2022-09-14T18:37:52.670Z,56.60
2022-09-14T18:40:27.551Z,56.40
2022-09-14T18:43:02.902Z,56.70
2022-09-14T18:45:38.102Z,56.00
2022-09-14T18:48:13.928Z,55.90
2022-09-14T18:50:50.968Z,55.70
2022-09-14T18:53:26.174Z,55.50
2022-09-14T18:56:03.834Z,55.20
2022-09-14T18:58:40.561Z,55.00
2022-09-14T19:01:16.608Z,54.70
2022-09-14T19:03:51.820Z,54.60
2022-09-14T19:06:28.429Z,54.40
2022-09-14T19:09:03.215Z,54.40
2022-09-14T19:11:38.157Z,54.20
2022-09-14T19:14:15.972Z,54.10
2022-09-14T19:16:52.181Z,53.90
2022-09-14T19:19:27.117Z,53.90
2022-09-14T19:22:03.393Z,53.80
2022-09-14T19:24:38.036Z,53.70
2022-09-14T19:27:12.239Z,53.60
2022-09-14T19:29:46.330Z,53.60
2022-09-14T19:32:20.651Z,53.60
2022-09-14T19:34:54.714Z,53.50
2022-09-14T19:37:31.382Z,53.50
2022-09-14T19:40:05.967Z,53.40
2022-09-14T19:42:39.891Z,53.30
2022-09-14T19:45:16.613Z,53.20
2022-09-14T19:47:50.462Z,53.20
2022-09-14T19:50:24.491Z,53.10
2022-09-14T19:53:03.897Z,53.10
2022-09-14T19:55:38.535Z,53.20
2022-09-14T19:58:12.378Z,53.20
2022-09-14T20:00:45.956Z,53.20
2022-09-14T20:03:19.856Z,53.20
2022-09-14T20:06:01.157Z,53.20
2022-09-14T20:08:37.524Z,53.30
2022-09-14T20:11:15.631Z,53.40
2022-09-14T20:13:55.500Z,53.70
2022-09-14T20:16:31.251Z,53.70
2022-09-14T20:19:07.654Z,53.70
2022-09-14T20:21:43.432Z,53.70
2022-09-14T20:24:21.029Z,53.90
2022-09-14T20:26:59.153Z,54.10
2022-09-14T20:29:35.738Z,54.10
2022-09-14T20:32:09.967Z,54.30
2022-09-14T20:34:46.301Z,54.20
2022-09-14T20:37:22.784Z,54.20
2022-09-14T20:39:59.212Z,54.10
2022-09-14T20:42:34.945Z,54.00
2022-09-14T20:45:13.402Z,54.60
2022-09-14T20:47:47.753Z,54.60
2022-09-14T20:50:21.740Z,54.40
2022-09-14T20:52:55.712Z,54.30
2022-09-14T20:55:34.160Z,54.50
2022-09-14T20:58:08.054Z,54.70
2022-09-14T21:00:42.577Z,54.80
2022-09-14T21:03:16.523Z,54.80
2022-09-14T21:05:54.275Z,54.90
2022-09-14T21:08:28.266Z,55.00
2022-09-14T21:11:07.337Z,55.00
2022-09-14T21:13:41.573Z,55.20
2022-09-14T21:16:17.358Z,55.20
2022-09-14T21:18:56.350Z,55.20
2022-09-14T21:21:30.948Z,55.30
2022-09-14T21:24:07.219Z,55.30
2022-09-14T21:26:44.257Z,55.40
2022-09-14T21:29:20.984Z,55.90
2022-09-14T21:31:55.168Z,56.10
2022-09-14T21:34:29.200Z,55.80
2022-09-14T21:37:03.390Z,55.60
2022-09-14T21:39:38.211Z,55.30
2022-09-14T21:42:13.472Z,55.20
2022-09-14T21:44:47.357Z,55.20
2022-09-14T21:47:21.891Z,55.20
2022-09-14T21:49:55.948Z,55.20
2022-09-14T21:52:30.054Z,55.20
2022-09-14T21:55:04.019Z,55.10
2022-09-14T21:57:39.542Z,55.10
2022-09-14T22:00:14.217Z,55.00
2022-09-14T22:02:48.177Z,55.00
2022-09-14T22:05:22.033Z,54.90
2022-09-14T22:07:55.893Z,55.00
2022-09-14T22:10:29.773Z,55.00
2022-09-14T22:13:05.053Z,54.80
2022-09-14T22:15:38.940Z,54.90
2022-09-14T22:18:12.913Z,54.90
2022-09-14T22:20:46.786Z,54.90
2022-09-14T22:23:20.355Z,54.90
2022-09-14T22:25:54.580Z,54.80
2022-09-14T22:28:30.374Z,54.90
2022-09-14T22:31:04.353Z,54.90
2022-09-14T22:33:38.432Z,55.10
2022-09-14T22:36:13.268Z,55.10
2022-09-14T22:38:47.781Z,55.80
2022-09-14T22:41:22.796Z,56.20
2022-09-14T22:43:58.386Z,56.60
2022-09-14T22:46:32.283Z,56.90
2022-09-14T22:49:06.184Z,56.80
2022-09-14T22:51:40.270Z,56.60
2022-09-14T22:54:14.411Z,56.70
2022-09-14T22:56:48.296Z,56.90
2022-09-14T22:59:23.249Z,56.60
2022-09-14T23:01:57.134Z,56.60
2022-09-14T23:04:31.308Z,56.80
2022-09-14T23:07:06.876Z,57.10
2022-09-14T23:09:41.073Z,57.00
2022-09-14T23:12:14.893Z,57.00
2022-09-14T23:14:49.807Z,57.00
2022-09-14T23:17:24.064Z,56.70
2022-09-14T23:19:57.900Z,56.90
2022-09-14T23:22:31.414Z,57.10
2022-09-14T23:25:05.984Z,57.30
2022-09-14T23:27:39.813Z,57.30
2022-09-14T23:30:15.905Z,57.50
2022-09-14T23:32:49.752Z,57.80
2022-09-14T23:35:23.263Z,57.90
2022-09-14T23:37:57.601Z,57.90
2022-09-14T23:40:31.495Z,57.70
2022-09-14T23:43:05.361Z,57.90
2022-09-14T23:45:40.340Z,58.10
2022-09-14T23:48:14.553Z,58.10
2022-09-14T23:50:57.045Z,58.00
2022-09-14T23:53:31.656Z,57.90
2022-09-14T23:56:06.561Z,57.90
2022-09-14T23:58:41.553Z,57.80
